sensor_id;sensor_type;location;lat;lon;timestamp;P1;durP1;ratioP1;P2;durP2;ratioP2
11039;SDS011;5573;49.592;8.662;2023-06-14T00:02:02;253.18;;;238.95;;
11039;SDS011;5573;49.592;8.662;2023-06-14T00:04:34;272.23;;;257.02;;
11039;SDS011;5573;49.592;8.662;2023-06-14T00:07:03;273.73;;;258.55;;
11039;SDS011;5573;49.592;8.662;2023-06-14T00:09:35;267.60;;;252.65;;
11039;SDS011;5573;49.592;8.662;2023-06-14T00:12:04;277.83;;;262.23;;
11039;SDS011;5573;49.592;8.662;2023-06-14T00:14:33;275.00;;;259.02;;
11039;SDS011;5573;49.592;8.662;2023-06-14T00:17:01;259.60;;;245.05;;
11039;SDS011;5573;49.592;8.662;2023-06-14T00:19:29;269.75;;;254.60;;
11039;SDS011;5573;49.592;8.662;2023-06-14T00:21:59;273.52;;;257.65;;
11039;SDS011;5573;49.592;8.662;2023-06-14T00:24:27;296.48;;;279.75;;
11039;SDS011;5573;49.592;8.662;2023-06-14T00:26:57;270.75;;;255.80;;
11039;SDS011;5573;49.592;8.662;2023-06-14T00:29:25;269.00;;;253.93;;
11039;SDS011;5573;49.592;8.662;2023-06-14T00:31:52;268.20;;;253.13;;
11039;SDS011;5573;49.592;8.662;2023-06-14T00:34:20;267.73;;;253.18;;
11039;SDS011;5573;49.592;8.662;2023-06-14T00:36:48;280.52;;;264.38;;
11039;SDS011;5573;49.592;8.662;2023-06-14T00:39:16;269.98;;;254.75;;
11039;SDS011;5573;49.592;8.662;2023-06-14T00:41:44;270.95;;;255.93;;
11039;SDS011;5573;49.592;8.662;2023-06-14T00:44:14;262.08;;;247.15;;
11039;SDS011;5573;49.592;8.662;2023-06-14T00:46:44;265.38;;;250.27;;
11039;SDS011;5573;49.592;8.662;2023-06-14T00:49:14;270.83;;;255.60;;
11039;SDS011;5573;49.592;8.662;2023-06-14T00:51:42;269.55;;;254.63;;
11039;SDS011;5573;49.592;8.662;2023-06-14T00:54:10;246.30;;;232.38;;
11039;SDS011;5573;49.592;8.662;2023-06-14T00:56:38;244.95;;;231.18;;
11039;SDS011;5573;49.592;8.662;2023-06-14T00:59:07;281.88;;;265.95;;
11039;SDS011;5573;49.592;8.662;2023-06-14T01:01:38;268.80;;;253.82;;
11039;SDS011;5573;49.592;8.662;2023-06-14T01:04:07;255.90;;;241.65;;
11039;SDS011;5573;49.592;8.662;2023-06-14T01:06:38;281.33;;;265.77;;
11039;SDS011;5573;49.592;8.662;2023-06-14T01:09:15;273.25;;;258.33;;
11039;SDS011;5573;49.592;8.662;2023-06-14T01:11:54;253.35;;;239.00;;
11039;SDS011;5573;49.592;8.662;2023-06-14T01:14:30;250.02;;;236.07;;
11039;SDS011;5573;49.592;8.662;2023-06-14T01:17:02;262.17;;;247.80;;
11039;SDS011;5573;49.592;8.662;2023-06-14T01:19:31;265.77;;;250.75;;
11039;SDS011;5573;49.592;8.662;2023-06-14T01:22:00;265.17;;;250.45;;
11039;SDS011;5573;49.592;8.662;2023-06-14T01:24:30;263.05;;;248.18;;
11039;SDS011;5573;49.592;8.662;2023-06-14T01:27:00;268.67;;;253.45;;
11039;SDS011;5573;49.592;8.662;2023-06-14T01:29:29;265.40;;;250.30;;
11039;SDS011;5573;49.592;8.662;2023-06-14T01:31:59;270.88;;;255.65;;
11039;SDS011;5573;49.592;8.662;2023-06-14T01:34:30;264.38;;;249.63;;
11039;SDS011;5573;49.592;8.662;2023-06-14T01:36:58;268.63;;;253.73;;
11039;SDS011;5573;49.592;8.662;2023-06-14T01:39:32;268.65;;;253.52;;
11039;SDS011;5573;49.592;8.662;2023-06-14T01:42:00;253.52;;;239.50;;
11039;SDS011;5573;49.592;8.662;2023-06-14T01:44:29;269.58;;;254.52;;
11039;SDS011;5573;49.592;8.662;2023-06-14T01:47:00;252.98;;;238.68;;
11039;SDS011;5573;49.592;8.662;2023-06-14T01:49:28;282.15;;;266.35;;
11039;SDS011;5573;49.592;8.662;2023-06-14T01:51:56;261.95;;;247.80;;
11039;SDS011;5573;49.592;8.662;2023-06-14T01:54:24;296.50;;;279.83;;
11039;SDS011;5573;49.592;8.662;2023-06-14T01:56:53;277.42;;;261.73;;
11039;SDS011;5573;49.592;8.662;2023-06-14T01:59:21;274.33;;;258.77;;
11039;SDS011;5573;49.592;8.662;2023-06-14T02:01:49;279.52;;;263.77;;
11039;SDS011;5573;49.592;8.662;2023-06-14T02:04:18;276.67;;;261.50;;
11039;SDS011;5573;49.592;8.662;2023-06-14T02:06:46;282.83;;;267.00;;
11039;SDS011;5573;49.592;8.662;2023-06-14T02:09:14;267.55;;;252.85;;
11039;SDS011;5573;49.592;8.662;2023-06-14T02:11:47;274.85;;;259.55;;
11039;SDS011;5573;49.592;8.662;2023-06-14T02:14:16;269.92;;;254.98;;
11039;SDS011;5573;49.592;8.662;2023-06-14T02:16:44;269.10;;;254.30;;
11039;SDS011;5573;49.592;8.662;2023-06-14T02:19:15;272.33;;;257.38;;
11039;SDS011;5573;49.592;8.662;2023-06-14T02:21:44;265.30;;;250.35;;
11039;SDS011;5573;49.592;8.662;2023-06-14T02:24:12;270.95;;;255.35;;
11039;SDS011;5573;49.592;8.662;2023-06-14T02:26:41;272.48;;;257.40;;
11039;SDS011;5573;49.592;8.662;2023-06-14T02:29:13;284.08;;;268.30;;
11039;SDS011;5573;49.592;8.662;2023-06-14T02:31:44;283.73;;;267.73;;
11039;SDS011;5573;49.592;8.662;2023-06-14T02:34:13;275.98;;;259.98;;
11039;SDS011;5573;49.592;8.662;2023-06-14T02:36:45;272.70;;;257.48;;
11039;SDS011;5573;49.592;8.662;2023-06-14T02:39:14;295.35;;;278.98;;
11039;SDS011;5573;49.592;8.662;2023-06-14T02:41:43;268.45;;;253.50;;
11039;SDS011;5573;49.592;8.662;2023-06-14T02:44:10;273.25;;;257.77;;
11039;SDS011;5573;49.592;8.662;2023-06-14T02:46:40;289.95;;;273.90;;
11039;SDS011;5573;49.592;8.662;2023-06-14T02:49:12;276.73;;;260.92;;
11039;SDS011;5573;49.592;8.662;2023-06-14T02:51:39;272.55;;;257.77;;
11039;SDS011;5573;49.592;8.662;2023-06-14T02:54:07;259.88;;;245.43;;
11039;SDS011;5573;49.592;8.662;2023-06-14T02:56:37;270.27;;;255.18;;
11039;SDS011;5573;49.592;8.662;2023-06-14T02:59:05;270.75;;;255.52;;
11039;SDS011;5573;49.592;8.662;2023-06-14T03:01:33;271.95;;;256.80;;
11039;SDS011;5573;49.592;8.662;2023-06-14T03:04:05;280.15;;;264.33;;
11039;SDS011;5573;49.592;8.662;2023-06-14T03:06:36;247.63;;;233.55;;
11039;SDS011;5573;49.592;8.662;2023-06-14T03:09:07;268.50;;;253.65;;
11039;SDS011;5573;49.592;8.662;2023-06-14T03:11:37;275.30;;;259.67;;
11039;SDS011;5573;49.592;8.662;2023-06-14T03:14:06;251.48;;;237.55;;
11039;SDS011;5573;49.592;8.662;2023-06-14T03:16:36;263.13;;;248.82;;
11039;SDS011;5573;49.592;8.662;2023-06-14T03:19:05;274.20;;;259.00;;
11039;SDS011;5573;49.592;8.662;2023-06-14T03:21:34;271.15;;;255.65;;
11039;SDS011;5573;49.592;8.662;2023-06-14T03:24:04;264.52;;;249.65;;
11039;SDS011;5573;49.592;8.662;2023-06-14T03:26:34;285.40;;;269.15;;
11039;SDS011;5573;49.592;8.662;2023-06-14T03:29:04;265.15;;;249.95;;
11039;SDS011;5573;49.592;8.662;2023-06-14T03:31:33;253.02;;;238.88;;
11039;SDS011;5573;49.592;8.662;2023-06-14T03:34:04;254.02;;;239.68;;
11039;SDS011;5573;49.592;8.662;2023-06-14T03:36:32;267.65;;;252.65;;
11039;SDS011;5573;49.592;8.662;2023-06-14T03:39:01;267.63;;;252.13;;
11039;SDS011;5573;49.592;8.662;2023-06-14T03:41:31;250.68;;;236.35;;
11039;SDS011;5573;49.592;8.662;2023-06-14T03:43:58;268.92;;;253.30;;
11039;SDS011;5573;49.592;8.662;2023-06-14T03:46:26;276.45;;;260.92;;
11039;SDS011;5573;49.592;8.662;2023-06-14T03:48:54;257.40;;;242.35;;
11039;SDS011;5573;49.592;8.662;2023-06-14T03:51:23;252.10;;;238.13;;
11039;SDS011;5573;49.592;8.662;2023-06-14T03:53:51;273.92;;;258.35;;
11039;SDS011;5573;49.592;8.662;2023-06-14T03:56:25;259.35;;;244.80;;
11039;SDS011;5573;49.592;8.662;2023-06-14T03:58:54;262.85;;;248.23;;
11039;SDS011;5573;49.592;8.662;2023-06-14T04:01:25;264.92;;;250.35;;
11039;SDS011;5573;49.592;8.662;2023-06-14T04:03:58;267.63;;;252.38;;
11039;SDS011;5573;49.592;8.662;2023-06-14T04:06:26;267.05;;;252.13;;
11039;SDS011;5573;49.592;8.662;2023-06-14T04:08:59;253.82;;;239.60;;
11039;SDS011;5573;49.592;8.662;2023-06-14T04:11:30;264.70;;;249.55;;
11039;SDS011;5573;49.592;8.662;2023-06-14T04:13:59;267.58;;;252.35;;
11039;SDS011;5573;49.592;8.662;2023-06-14T04:16:29;271.60;;;256.20;;
11039;SDS011;5573;49.592;8.662;2023-06-14T04:18:58;264.05;;;248.77;;
11039;SDS011;5573;49.592;8.662;2023-06-14T04:21:27;267.55;;;252.18;;
11039;SDS011;5573;49.592;8.662;2023-06-14T04:23:58;260.95;;;246.00;;
11039;SDS011;5573;49.592;8.662;2023-06-14T04:26:29;255.15;;;240.57;;
11039;SDS011;5573;49.592;8.662;2023-06-14T04:29:02;250.07;;;236.13;;
11039;SDS011;5573;49.592;8.662;2023-06-14T04:31:33;260.90;;;246.30;;
11039;SDS011;5573;49.592;8.662;2023-06-14T04:34:06;249.05;;;234.73;;
11039;SDS011;5573;49.592;8.662;2023-06-14T04:36:35;274.10;;;258.67;;
11039;SDS011;5573;49.592;8.662;2023-06-14T04:39:05;240.68;;;227.20;;
11039;SDS011;5573;49.592;8.662;2023-06-14T04:41:33;255.38;;;240.63;;
11039;SDS011;5573;49.592;8.662;2023-06-14T04:44:03;265.92;;;251.13;;
11039;SDS011;5573;49.592;8.662;2023-06-14T04:46:36;241.98;;;228.50;;
11039;SDS011;5573;49.592;8.662;2023-06-14T04:49:14;244.88;;;230.90;;
11039;SDS011;5573;49.592;8.662;2023-06-14T04:51:42;268.20;;;252.65;;
11039;SDS011;5573;49.592;8.662;2023-06-14T04:54:10;256.48;;;241.85;;
11039;SDS011;5573;49.592;8.662;2023-06-14T04:56:41;243.63;;;229.82;;
11039;SDS011;5573;49.592;8.662;2023-06-14T04:59:12;242.63;;;228.88;;
11039;SDS011;5573;49.592;8.662;2023-06-14T05:01:41;251.52;;;237.20;;
11039;SDS011;5573;49.592;8.662;2023-06-14T05:04:14;256.67;;;242.07;;
11039;SDS011;5573;49.592;8.662;2023-06-14T05:06:42;262.52;;;247.63;;
11039;SDS011;5573;49.592;8.662;2023-06-14T05:09:11;264.45;;;249.85;;
11039;SDS011;5573;49.592;8.662;2023-06-14T05:11:40;251.75;;;237.68;;
11039;SDS011;5573;49.592;8.662;2023-06-14T05:14:09;248.40;;;234.35;;
11039;SDS011;5573;49.592;8.662;2023-06-14T05:16:38;264.20;;;249.43;;
11039;SDS011;5573;49.592;8.662;2023-06-14T05:19:06;242.57;;;228.80;;
11039;SDS011;5573;49.592;8.662;2023-06-14T05:21:34;247.32;;;233.25;;
11039;SDS011;5573;49.592;8.662;2023-06-14T05:24:08;260.15;;;245.25;;
11039;SDS011;5573;49.592;8.662;2023-06-14T05:26:38;281.77;;;265.75;;
11039;SDS011;5573;49.592;8.662;2023-06-14T05:29:06;247.57;;;233.55;;
11039;SDS011;5573;49.592;8.662;2023-06-14T05:31:34;257.15;;;242.40;;
11039;SDS011;5573;49.592;8.662;2023-06-14T05:34:03;271.00;;;255.65;;
11039;SDS011;5573;49.592;8.662;2023-06-14T05:36:31;255.70;;;241.15;;
11039;SDS011;5573;49.592;8.662;2023-06-14T05:38:59;263.50;;;248.40;;
11039;SDS011;5573;49.592;8.662;2023-06-14T05:41:29;255.27;;;240.95;;
11039;SDS011;5573;49.592;8.662;2023-06-14T05:43:57;253.05;;;238.45;;
11039;SDS011;5573;49.592;8.662;2023-06-14T05:46:26;269.00;;;253.75;;
11039;SDS011;5573;49.592;8.662;2023-06-14T05:48:54;259.08;;;244.45;;
11039;SDS011;5573;49.592;8.662;2023-06-14T05:51:24;256.35;;;241.75;;
11039;SDS011;5573;49.592;8.662;2023-06-14T05:53:53;276.52;;;260.63;;
11039;SDS011;5573;49.592;8.662;2023-06-14T05:56:21;252.65;;;238.45;;
11039;SDS011;5573;49.592;8.662;2023-06-14T05:58:49;265.85;;;250.35;;
11039;SDS011;5573;49.592;8.662;2023-06-14T06:01:17;251.20;;;237.05;;
11039;SDS011;5573;49.592;8.662;2023-06-14T06:03:45;240.73;;;227.00;;
11039;SDS011;5573;49.592;8.662;2023-06-14T06:06:13;249.63;;;235.25;;
11039;SDS011;5573;49.592;8.662;2023-06-14T06:08:42;264.15;;;249.40;;
11039;SDS011;5573;49.592;8.662;2023-06-14T06:11:10;260.35;;;245.48;;
11039;SDS011;5573;49.592;8.662;2023-06-14T06:13:38;266.40;;;251.38;;
11039;SDS011;5573;49.592;8.662;2023-06-14T06:16:07;258.33;;;244.07;;
11039;SDS011;5573;49.592;8.662;2023-06-14T06:18:35;275.58;;;260.25;;
11039;SDS011;5573;49.592;8.662;2023-06-14T06:21:03;264.40;;;249.88;;
11039;SDS011;5573;49.592;8.662;2023-06-14T06:23:31;261.90;;;247.35;;
11039;SDS011;5573;49.592;8.662;2023-06-14T06:26:01;267.05;;;252.23;;
11039;SDS011;5573;49.592;8.662;2023-06-14T06:28:28;267.20;;;252.52;;
11039;SDS011;5573;49.592;8.662;2023-06-14T06:30:56;265.38;;;250.63;;
11039;SDS011;5573;49.592;8.662;2023-06-14T06:33:24;268.52;;;253.68;;
11039;SDS011;5573;49.592;8.662;2023-06-14T06:35:52;273.85;;;258.60;;
11039;SDS011;5573;49.592;8.662;2023-06-14T06:38:19;280.15;;;264.80;;
11039;SDS011;5573;49.592;8.662;2023-06-14T06:40:47;258.80;;;244.55;;
11039;SDS011;5573;49.592;8.662;2023-06-14T06:43:17;273.88;;;258.83;;
11039;SDS011;5573;49.592;8.662;2023-06-14T06:45:47;261.58;;;246.98;;
11039;SDS011;5573;49.592;8.662;2023-06-14T06:48:15;280.23;;;264.48;;
11039;SDS011;5573;49.592;8.662;2023-06-14T06:50:43;263.30;;;248.40;;
11039;SDS011;5573;49.592;8.662;2023-06-14T06:53:11;273.42;;;258.15;;
11039;SDS011;5573;49.592;8.662;2023-06-14T06:55:46;274.25;;;259.15;;
11039;SDS011;5573;49.592;8.662;2023-06-14T06:58:14;279.58;;;263.92;;
11039;SDS011;5573;49.592;8.662;2023-06-14T07:00:43;281.05;;;265.55;;
11039;SDS011;5573;49.592;8.662;2023-06-14T07:03:11;281.30;;;265.60;;
11039;SDS011;5573;49.592;8.662;2023-06-14T07:05:39;287.08;;;271.60;;
11039;SDS011;5573;49.592;8.662;2023-06-14T07:08:07;294.17;;;278.42;;
11039;SDS011;5573;49.592;8.662;2023-06-14T07:10:35;297.02;;;280.98;;
11039;SDS011;5573;49.592;8.662;2023-06-14T07:13:03;322.77;;;305.00;;
11039;SDS011;5573;49.592;8.662;2023-06-14T07:15:34;334.95;;;316.17;;
11039;SDS011;5573;49.592;8.662;2023-06-14T07:18:04;338.92;;;320.30;;
11039;SDS011;5573;49.592;8.662;2023-06-14T07:20:33;350.00;;;331.08;;
11039;SDS011;5573;49.592;8.662;2023-06-14T07:23:01;329.70;;;311.77;;
11039;SDS011;5573;49.592;8.662;2023-06-14T07:25:29;384.98;;;363.50;;
11039;SDS011;5573;49.592;8.662;2023-06-14T07:27:57;342.95;;;323.77;;
11039;SDS011;5573;49.592;8.662;2023-06-14T07:30:24;382.02;;;360.48;;
11039;SDS011;5573;49.592;8.662;2023-06-14T07:32:53;376.92;;;355.27;;
11039;SDS011;5573;49.592;8.662;2023-06-14T07:35:22;357.08;;;336.63;;
11039;SDS011;5573;49.592;8.662;2023-06-14T07:37:50;376.55;;;354.77;;
11039;SDS011;5573;49.592;8.662;2023-06-14T07:40:19;384.17;;;361.73;;
11039;SDS011;5573;49.592;8.662;2023-06-14T07:42:47;360.52;;;339.38;;
11039;SDS011;5573;49.592;8.662;2023-06-14T07:45:16;361.77;;;340.17;;
11039;SDS011;5573;49.592;8.662;2023-06-14T07:47:44;353.83;;;333.52;;
11039;SDS011;5573;49.592;8.662;2023-06-14T07:50:12;335.33;;;315.77;;
11039;SDS011;5573;49.592;8.662;2023-06-14T07:52:41;363.05;;;341.75;;
11039;SDS011;5573;49.592;8.662;2023-06-14T07:55:09;357.35;;;336.08;;
11039;SDS011;5573;49.592;8.662;2023-06-14T07:57:37;354.02;;;333.13;;
11039;SDS011;5573;49.592;8.662;2023-06-14T08:00:05;342.67;;;322.50;;
11039;SDS011;5573;49.592;8.662;2023-06-14T08:02:40;358.30;;;337.80;;
11039;SDS011;5573;49.592;8.662;2023-06-14T08:05:09;375.67;;;353.30;;
11039;SDS011;5573;49.592;8.662;2023-06-14T08:07:38;364.33;;;342.83;;
11039;SDS011;5573;49.592;8.662;2023-06-14T08:10:08;379.38;;;357.42;;
11039;SDS011;5573;49.592;8.662;2023-06-14T08:12:36;344.48;;;324.42;;
11039;SDS011;5573;49.592;8.662;2023-06-14T08:15:05;369.00;;;347.50;;
11039;SDS011;5573;49.592;8.662;2023-06-14T08:17:41;375.92;;;354.05;;
11039;SDS011;5573;49.592;8.662;2023-06-14T08:20:10;373.92;;;352.58;;
11039;SDS011;5573;49.592;8.662;2023-06-14T08:22:38;372.75;;;350.92;;
11039;SDS011;5573;49.592;8.662;2023-06-14T08:25:10;381.73;;;360.30;;
11039;SDS011;5573;49.592;8.662;2023-06-14T08:27:39;349.70;;;330.10;;
11039;SDS011;5573;49.592;8.662;2023-06-14T08:30:08;326.27;;;307.80;;
11039;SDS011;5573;49.592;8.662;2023-06-14T08:32:36;345.10;;;325.60;;
11039;SDS011;5573;49.592;8.662;2023-06-14T08:35:05;340.95;;;322.35;;
11039;SDS011;5573;49.592;8.662;2023-06-14T08:37:37;353.88;;;333.98;;
11039;SDS011;5573;49.592;8.662;2023-06-14T08:40:06;315.20;;;297.60;;
11039;SDS011;5573;49.592;8.662;2023-06-14T08:42:42;337.63;;;318.67;;
11039;SDS011;5573;49.592;8.662;2023-06-14T08:45:10;321.13;;;303.42;;
11039;SDS011;5573;49.592;8.662;2023-06-14T08:47:38;326.13;;;308.00;;
11039;SDS011;5573;49.592;8.662;2023-06-14T08:50:08;340.85;;;321.83;;
11039;SDS011;5573;49.592;8.662;2023-06-14T08:52:54;335.30;;;316.55;;
11039;SDS011;5573;49.592;8.662;2023-06-14T08:55:28;333.23;;;315.02;;
11039;SDS011;5573;49.592;8.662;2023-06-14T08:58:02;330.38;;;312.42;;
11039;SDS011;5573;49.592;8.662;2023-06-14T09:00:31;333.90;;;315.83;;
11039;SDS011;5573;49.592;8.662;2023-06-14T09:03:00;338.83;;;319.88;;
11039;SDS011;5573;49.592;8.662;2023-06-14T09:05:29;330.20;;;312.05;;
11039;SDS011;5573;49.592;8.662;2023-06-14T09:07:57;342.17;;;322.65;;
11039;SDS011;5573;49.592;8.662;2023-06-14T09:10:32;345.55;;;326.50;;
11039;SDS011;5573;49.592;8.662;2023-06-14T09:13:00;356.05;;;336.00;;
11039;SDS011;5573;49.592;8.662;2023-06-14T09:15:30;362.42;;;342.70;;
11039;SDS011;5573;49.592;8.662;2023-06-14T09:18:00;365.05;;;344.73;;
11039;SDS011;5573;49.592;8.662;2023-06-14T09:20:30;335.15;;;316.65;;
11039;SDS011;5573;49.592;8.662;2023-06-14T09:22:58;351.17;;;331.40;;
11039;SDS011;5573;49.592;8.662;2023-06-14T09:25:27;343.70;;;325.02;;
11039;SDS011;5573;49.592;8.662;2023-06-14T09:28:10;365.70;;;345.75;;
11039;SDS011;5573;49.592;8.662;2023-06-14T09:30:38;365.45;;;344.73;;
11039;SDS011;5573;49.592;8.662;2023-06-14T09:33:06;367.52;;;347.02;;
11039;SDS011;5573;49.592;8.662;2023-06-14T09:35:34;372.52;;;351.55;;
11039;SDS011;5573;49.592;8.662;2023-06-14T09:38:03;375.45;;;354.23;;
11039;SDS011;5573;49.592;8.662;2023-06-14T09:40:33;374.50;;;353.13;;
11039;SDS011;5573;49.592;8.662;2023-06-14T09:43:04;372.73;;;351.90;;
11039;SDS011;5573;49.592;8.662;2023-06-14T09:45:36;400.30;;;377.35;;
11039;SDS011;5573;49.592;8.662;2023-06-14T09:48:06;362.88;;;342.42;;
11039;SDS011;5573;49.592;8.662;2023-06-14T09:50:34;375.67;;;354.45;;
11039;SDS011;5573;49.592;8.662;2023-06-14T09:53:03;377.83;;;356.27;;
11039;SDS011;5573;49.592;8.662;2023-06-14T09:55:34;374.55;;;352.85;;
11039;SDS011;5573;49.592;8.662;2023-06-14T09:58:04;387.52;;;365.33;;
11039;SDS011;5573;49.592;8.662;2023-06-14T10:00:36;387.27;;;365.05;;
11039;SDS011;5573;49.592;8.662;2023-06-14T10:03:11;381.90;;;360.17;;
11039;SDS011;5573;49.592;8.662;2023-06-14T10:05:41;379.10;;;357.08;;
11039;SDS011;5573;49.592;8.662;2023-06-14T10:08:13;387.85;;;366.05;;
11039;SDS011;5573;49.592;8.662;2023-06-14T10:10:43;388.40;;;365.77;;
11039;SDS011;5573;49.592;8.662;2023-06-14T10:13:11;387.42;;;365.13;;
11039;SDS011;5573;49.592;8.662;2023-06-14T10:15:46;398.77;;;375.75;;
11039;SDS011;5573;49.592;8.662;2023-06-14T10:18:24;381.55;;;359.50;;
11039;SDS011;5573;49.592;8.662;2023-06-14T10:21:01;392.88;;;370.23;;
11039;SDS011;5573;49.592;8.662;2023-06-14T10:23:36;377.17;;;355.10;;
11039;SDS011;5573;49.592;8.662;2023-06-14T10:26:08;391.15;;;368.27;;
11039;SDS011;5573;49.592;8.662;2023-06-14T10:28:37;396.80;;;374.02;;
11039;SDS011;5573;49.592;8.662;2023-06-14T10:31:07;383.50;;;361.27;;
11039;SDS011;5573;49.592;8.662;2023-06-14T10:33:36;376.23;;;354.75;;
11039;SDS011;5573;49.592;8.662;2023-06-14T10:36:20;381.27;;;359.10;;
11039;SDS011;5573;49.592;8.662;2023-06-14T10:38:57;401.27;;;378.25;;
11039;SDS011;5573;49.592;8.662;2023-06-14T10:41:26;416.30;;;392.45;;
11039;SDS011;5573;49.592;8.662;2023-06-14T10:47:09;369.38;;;348.40;;
11039;SDS011;5573;49.592;8.662;2023-06-14T10:49:40;387.73;;;365.00;;
11039;SDS011;5573;49.592;8.662;2023-06-14T10:52:10;373.08;;;351.38;;
11039;SDS011;5573;49.592;8.662;2023-06-14T10:54:56;391.58;;;369.10;;
11039;SDS011;5573;49.592;8.662;2023-06-14T10:57:35;373.75;;;352.15;;
11039;SDS011;5573;49.592;8.662;2023-06-14T11:00:18;379.02;;;356.92;;
11039;SDS011;5573;49.592;8.662;2023-06-14T11:06:12;393.40;;;370.23;;
11039;SDS011;5573;49.592;8.662;2023-06-14T11:11:47;371.83;;;349.98;;
11039;SDS011;5573;49.592;8.662;2023-06-14T11:14:16;394.65;;;371.80;;
11039;SDS011;5573;49.592;8.662;2023-06-14T11:16:47;405.05;;;381.85;;
11039;SDS011;5573;49.592;8.662;2023-06-14T11:19:15;390.08;;;367.52;;
11039;SDS011;5573;49.592;8.662;2023-06-14T11:21:48;406.05;;;382.52;;
11039;SDS011;5573;49.592;8.662;2023-06-14T11:24:16;405.77;;;382.48;;
11039;SDS011;5573;49.592;8.662;2023-06-14T11:26:44;409.98;;;386.25;;
11039;SDS011;5573;49.592;8.662;2023-06-14T11:29:15;390.92;;;368.17;;
11039;SDS011;5573;49.592;8.662;2023-06-14T11:31:43;379.02;;;357.23;;
11039;SDS011;5573;49.592;8.662;2023-06-14T11:34:12;393.77;;;371.10;;
11039;SDS011;5573;49.592;8.662;2023-06-14T11:36:40;402.17;;;378.30;;
11039;SDS011;5573;49.592;8.662;2023-06-14T11:39:11;398.33;;;375.38;;
11039;SDS011;5573;49.592;8.662;2023-06-14T11:41:39;402.38;;;378.13;;
11039;SDS011;5573;49.592;8.662;2023-06-14T11:44:09;416.95;;;392.92;;
11039;SDS011;5573;49.592;8.662;2023-06-14T11:46:38;382.33;;;360.50;;
11039;SDS011;5573;49.592;8.662;2023-06-14T11:49:06;395.25;;;371.85;;
11039;SDS011;5573;49.592;8.662;2023-06-14T11:51:36;386.70;;;364.45;;
11039;SDS011;5573;49.592;8.662;2023-06-14T11:54:05;414.15;;;389.85;;
11039;SDS011;5573;49.592;8.662;2023-06-14T11:56:36;378.73;;;357.17;;
11039;SDS011;5573;49.592;8.662;2023-06-14T11:59:04;413.08;;;388.92;;
11039;SDS011;5573;49.592;8.662;2023-06-14T12:01:35;397.02;;;373.52;;
11039;SDS011;5573;49.592;8.662;2023-06-14T12:04:04;370.52;;;348.83;;
11039;SDS011;5573;49.592;8.662;2023-06-14T12:06:32;385.65;;;363.02;;
11039;SDS011;5573;49.592;8.662;2023-06-14T12:09:07;375.45;;;353.52;;
11039;SDS011;5573;49.592;8.662;2023-06-14T12:11:41;400.85;;;377.83;;
11039;SDS011;5573;49.592;8.662;2023-06-14T12:14:09;396.65;;;373.40;;
11039;SDS011;5573;49.592;8.662;2023-06-14T12:16:37;378.08;;;355.50;;
11039;SDS011;5573;49.592;8.662;2023-06-14T12:19:11;374.63;;;352.77;;
11039;SDS011;5573;49.592;8.662;2023-06-14T12:21:39;389.10;;;366.30;;
11039;SDS011;5573;49.592;8.662;2023-06-14T12:24:08;386.70;;;363.83;;
11039;SDS011;5573;49.592;8.662;2023-06-14T12:26:40;402.45;;;378.23;;
11039;SDS011;5573;49.592;8.662;2023-06-14T12:29:09;402.58;;;378.83;;
11039;SDS011;5573;49.592;8.662;2023-06-14T12:31:38;394.45;;;371.52;;
11039;SDS011;5573;49.592;8.662;2023-06-14T12:34:06;381.50;;;358.73;;
11039;SDS011;5573;49.592;8.662;2023-06-14T12:36:34;394.90;;;372.10;;
11039;SDS011;5573;49.592;8.662;2023-06-14T12:39:07;401.02;;;377.60;;
11039;SDS011;5573;49.592;8.662;2023-06-14T12:41:35;416.00;;;391.50;;
11039;SDS011;5573;49.592;8.662;2023-06-14T12:44:05;404.90;;;381.20;;
11039;SDS011;5573;49.592;8.662;2023-06-14T12:46:33;392.15;;;369.15;;
11039;SDS011;5573;49.592;8.662;2023-06-14T12:49:01;382.20;;;359.90;;
11039;SDS011;5573;49.592;8.662;2023-06-14T12:51:29;383.98;;;361.63;;
11039;SDS011;5573;49.592;8.662;2023-06-14T12:53:57;380.67;;;358.60;;
11039;SDS011;5573;49.592;8.662;2023-06-14T12:56:25;398.00;;;374.35;;
11039;SDS011;5573;49.592;8.662;2023-06-14T12:58:53;409.30;;;385.45;;
11039;SDS011;5573;49.592;8.662;2023-06-14T13:01:22;380.75;;;357.98;;
11039;SDS011;5573;49.592;8.662;2023-06-14T13:03:50;376.38;;;354.35;;
11039;SDS011;5573;49.592;8.662;2023-06-14T13:06:20;397.98;;;374.83;;
11039;SDS011;5573;49.592;8.662;2023-06-14T13:08:48;384.90;;;362.75;;
11039;SDS011;5573;49.592;8.662;2023-06-14T13:11:16;392.10;;;369.23;;
11039;SDS011;5573;49.592;8.662;2023-06-14T13:13:44;402.52;;;379.08;;
11039;SDS011;5573;49.592;8.662;2023-06-14T13:16:13;386.73;;;363.75;;
11039;SDS011;5573;49.592;8.662;2023-06-14T13:18:42;409.33;;;385.75;;
11039;SDS011;5573;49.592;8.662;2023-06-14T13:21:10;428.85;;;403.67;;
11039;SDS011;5573;49.592;8.662;2023-06-14T13:23:38;415.83;;;392.00;;
11039;SDS011;5573;49.592;8.662;2023-06-14T13:26:05;390.33;;;367.40;;
11039;SDS011;5573;49.592;8.662;2023-06-14T13:28:33;396.27;;;372.85;;
11039;SDS011;5573;49.592;8.662;2023-06-14T13:31:01;393.27;;;370.33;;
11039;SDS011;5573;49.592;8.662;2023-06-14T13:33:30;400.55;;;376.52;;
11039;SDS011;5573;49.592;8.662;2023-06-14T13:36:00;409.77;;;385.73;;
11039;SDS011;5573;49.592;8.662;2023-06-14T13:38:28;392.60;;;369.75;;
11039;SDS011;5573;49.592;8.662;2023-06-14T13:40:56;391.42;;;368.35;;
11039;SDS011;5573;49.592;8.662;2023-06-14T13:43:24;386.48;;;363.70;;
11039;SDS011;5573;49.592;8.662;2023-06-14T13:45:52;389.58;;;366.95;;
11039;SDS011;5573;49.592;8.662;2023-06-14T13:48:19;371.90;;;350.00;;
11039;SDS011;5573;49.592;8.662;2023-06-14T13:50:48;393.48;;;370.50;;
11039;SDS011;5573;49.592;8.662;2023-06-14T13:53:17;382.00;;;359.38;;
11039;SDS011;5573;49.592;8.662;2023-06-14T13:55:45;387.35;;;364.63;;
11039;SDS011;5573;49.592;8.662;2023-06-14T13:58:13;379.73;;;357.80;;
11039;SDS011;5573;49.592;8.662;2023-06-14T14:00:41;389.33;;;366.40;;
11039;SDS011;5573;49.592;8.662;2023-06-14T14:03:10;394.38;;;371.20;;
11039;SDS011;5573;49.592;8.662;2023-06-14T14:05:38;407.55;;;383.83;;
11039;SDS011;5573;49.592;8.662;2023-06-14T14:08:06;397.25;;;373.67;;
11039;SDS011;5573;49.592;8.662;2023-06-14T14:13:11;414.88;;;390.17;;
11039;SDS011;5573;49.592;8.662;2023-06-14T14:15:39;399.83;;;376.23;;
11039;SDS011;5573;49.592;8.662;2023-06-14T14:18:07;400.27;;;376.77;;
11039;SDS011;5573;49.592;8.662;2023-06-14T14:20:35;403.00;;;379.77;;
11039;SDS011;5573;49.592;8.662;2023-06-14T14:23:03;403.80;;;379.80;;
11039;SDS011;5573;49.592;8.662;2023-06-14T14:25:31;402.58;;;378.75;;
11039;SDS011;5573;49.592;8.662;2023-06-14T14:27:58;396.95;;;373.98;;
11039;SDS011;5573;49.592;8.662;2023-06-14T14:30:28;390.08;;;367.90;;
11039;SDS011;5573;49.592;8.662;2023-06-14T14:32:55;394.67;;;371.52;;
11039;SDS011;5573;49.592;8.662;2023-06-14T14:35:23;383.67;;;361.05;;